Etchingham, United Kingdom
Current Conditions -  °F | °C
As of 10:20 AM on Sunday 26 Oct 2014 (Local Time) from EGMD Reporting Station
Broken Clouds Broken Clouds  
Wind Chill: 59°   Ceiling: 3300
Heat Index: 59°   Visibility: 6mi
Dew Point: 52°   Wind: 18mph
Humidity: 77%   Direction: 220°SW
Pressure: 30.21"   Gusts: NA
Location:  51.01°N, 0.44°E
Report Text: EGMD 260920Z 22016KT 9999 BKN033 15/11 Q1023
Loading
Personal Weather Stations






























Interactive Weather Map New forecast layout! Learn more

10-Day Weather Forecast

Advertisements
Track Severe Weather on mobile